Terminal Aerodrome Forecast
Issued by NWS

Home | Current Version | Previous Version | Text Only | Print | Product List | Glossary On
Versions: 1 2 3 4 5 6 7 8 9 10 11 12
000
FTUS46 KSEW 270536
TAFBFI
TAF
KBFI 270536Z 2706/2806 VRB03KT P6SM SCT250
     FM270900 17006KT P6SM SCT250
     FM271400 18008KT P6SM OVC016
     FM271800 18008KT P6SM BKN025
     FM272000 18008KT P6SM SCT035 BKN100
     FM280400 18008KT P6SM BKN035 BKN100=

USA.gov is the U.S. government's official web portal to all federal, state and local government web resources and services.